Latest Weather Observations for Murrurundi Gap

IDN60801

Issued at 7:35 am EST Wednesday 1 October 2014 (issued every 30 minutes, with the page automatically refreshed every 10 minutes)

About weather observations | Map of weather stations | Latest weather observations for NSW | Other Formats
Station Details ID: 061392 Name: MURRURUNDI GAP AWS Lat: -31.74 Lon: 150.79 Height: 729.4 m
Data from the previous 72 hours. | See also: Recent months for locations in New South Wales
Date/Time
EST
Temp
°C
App
Temp
°C
Dew
Point
Rel
Hum
%
Delta-T
°C
Wind Press
QNH
hPa
Press
MSL
hPa
Rain
since 9 am
mm
Dir
 
Spd
km/h
Gust
km/h
Spd
kts
Gust
kts
01/07:30am 15.2 11.2 3.0 44 5.7 NNW 13 24 7 13 1018.4 1017.1 0.0
01/07:00am 14.7 10.6 4.1 49 5.1 WNW 15 20 8 11 1018.0 1016.7 0.0
01/06:30am 14.7 12.0 3.5 47 5.3 WNW 7 19 4 10 1017.7 1016.3 0.0
01/06:00am 14.4 12.5 2.9 46 5.4 WNW 2 7 1 4 1017.3 1015.9 0.0
01/05:30am 14.4 8.8 3.2 47 5.3 NW 22 28 12 15 1016.1 1014.7 0.0
01/05:00am 15.1 10.2 3.9 47 5.4 NW 19 22 10 12 1015.5 1014.1 0.0
01/04:30am 15.8 10.9 3.9 45 5.7 NNW 19 26 10 14 1014.7 1013.3 0.0
01/04:00am 15.5 10.6 4.2 47 5.5 NNW 19 24 10 13 1014.4 1012.9 0.0
01/03:30am 15.2 11.6 5.1 51 5.0 NW 13 15 7 8 1014.4 1012.9 0.0
01/03:00am 16.6 12.2 4.6 45 5.9 WNW 17 20 9 11 1014.0 1012.6 0.0
01/02:30am 16.9 11.6 4.9 45 5.9 NNW 22 28 12 15 1013.9 1012.5 0.0
01/02:00am 16.5 11.8 6.1 50 5.3 NNW 20 24 11 13 1014.1 1012.7 0.0
01/01:30am 17.0 13.0 6.8 51 5.2 NNW 17 22 9 12 1014.6 1013.2 0.0
01/01:00am 17.0 12.8 7.4 53 5.0 NW 19 24 10 13 1014.9 1013.5 0.0
01/12:30am 16.8 12.6 7.4 54 4.9 NNW 19 22 10 12 1014.9 1013.5 0.0
01/12:00am 16.9 11.3 7.3 53 5.0 NW 26 30 14 16 1014.8 1013.4 0.0
 
Date/Time
EST
Temp
°C
App
Temp
°C
Dew
Point
Rel
Hum
%
Delta-T
°C
Wind Press
QNH
hPa
Press
MSL
hPa
Rain
since 9 am
mm
Dir
 
Spd
km/h
Gust
km/h
Spd
kts
Gust
kts
30/11:30pm 17.3 10.5 7.1 51 5.3 NW 32 35 17 19 1014.7 1013.3 0.0
30/11:00pm 17.2 10.4 7.0 51 5.3 NW 32 35 17 19 1014.8 1013.4 0.0
30/10:30pm 16.8 10.7 6.6 51 5.2 NW 28 32 15 17 1014.8 1013.4 0.0
30/10:00pm 17.6 11.5 6.5 48 5.7 NW 28 32 15 17 1015.0 1013.6 0.0
30/09:30pm 18.1 12.8 6.9 48 5.8 NW 24 28 13 15 1015.5 1014.1 0.0
30/09:00pm 19.0 12.5 6.5 44 6.5 NW 30 35 16 19 1015.4 1014.0 0.0
30/08:30pm 19.3 13.6 6.8 44 6.5 NW 26 32 14 17 1015.3 1013.9 0.0
30/08:00pm 20.9 14.0 6.4 39 7.6 NW 32 39 17 21 1015.1 1013.7 0.0
30/07:30pm 22.1 14.5 5.9 35 8.5 NW 35 44 19 24 1015.0 1013.6 0.0
30/07:00pm 22.7 16.2 6.5 35 8.6 NNW 30 50 16 27 1015.1 1013.7 0.0
30/06:53pm 23.3 16.8 6.6 34 8.9 NNW 30 50 16 27 1014.9 1013.5 0.0
30/06:30pm 22.8 15.8 6.1 34 8.8 NNW 32 43 17 23 1015.1 1013.7 0.0
30/06:00pm 23.0 15.5 6.3 34 8.8 NNW 35 46 19 25 1015.0 1013.6 0.0
30/05:30pm 23.0 15.9 7.9 38 8.2 NNW 35 48 19 26 1015.3 1013.9 0.0
30/05:00pm 23.2 16.4 7.7 37 8.4 NNW 33 46 18 25 1015.9 1014.5 0.0
30/04:30pm 23.5 16.3 7.6 36 8.6 NNW 35 46 19 25 1016.0 1014.6 0.0
30/04:00pm 23.7 17.9 7.8 36 8.7 NW 28 37 15 20 1016.3 1014.9 0.0
30/03:30pm 23.9 18.1 7.9 36 8.8 NW 28 37 15 20 1016.3 1014.9 0.0
30/03:00pm 24.0 17.6 8.4 37 8.6 NW 32 43 17 23 1016.7 1015.3 0.0
30/02:30pm 24.5 16.6 8.0 35 9.1 NW 39 50 21 27 1016.8 1015.5 0.0
30/02:00pm 24.3 17.7 8.7 37 8.7 NW 33 39 18 21 1017.0 1015.7 0.0
30/01:30pm 23.9 17.1 9.1 39 8.3 NW 35 46 19 25 1017.5 1016.1 0.0
30/01:00pm 23.3 16.6 8.2 38 8.3 NNW 33 41 18 22 1018.0 1016.7 0.0
30/12:30pm 22.0 15.2 7.8 40 7.7 N 33 41 18 22 1018.4 1017.1 0.0
30/12:00pm 22.8 16.1 8.1 39 8.0 NW 33 44 18 24 1018.9 1017.5 0.0
30/11:30am 21.7 14.2 7.9 41 7.5 NNW 37 50 20 27 1019.5 1018.2 0.0
30/11:00am 20.9 12.9 7.5 42 7.1 NW 39 50 21 27 1019.3 1018.0 0.0
30/10:30am 21.7 12.9 7.2 39 7.7 NNW 43 54 23 29 1019.3 1018.0 0.0
30/10:00am 21.2 12.1 6.7 39 7.6 NW 44 52 24 28 1019.7 1018.4 0.0
30/09:30am 21.1 14.2 9.0 46 6.6 NW 35 43 19 23 1019.8 1018.5 0.0
30/09:00am 20.9 14.0 8.9 46 6.6 NNW 35 43 19 23 1019.9 1018.6 0.0
30/08:30am 19.8 12.5 7.2 44 6.6 NNW 35 41 19 22 1019.8 1018.5 0.0
30/08:00am 19.2 13.4 7.9 48 6.0 NW 28 35 15 19 1020.0 1018.7 0.0
30/07:30am 18.7 12.1 7.8 49 5.8 NNW 32 35 17 19 1019.8 1018.5 0.0
30/07:00am 18.3 12.3 7.1 48 5.8 NNW 28 35 15 19 1019.4 1018.1 0.0
30/06:30am 17.5 11.9 7.0 50 5.4 NW 26 30 14 16 1019.4 1018.1 0.0
30/06:00am 17.5 12.1 6.4 48 5.7 NW 24 28 13 15 1019.2 1017.8 0.0
30/05:30am 17.5 12.1 6.4 48 5.7 NW 24 30 13 16 1018.9 1017.5 0.0
30/05:00am 17.7 12.2 5.9 46 6.0 NW 24 28 13 15 1018.7 1017.3 0.0
30/04:30am 17.5 12.0 5.8 46 5.9 NW 24 28 13 15 1018.8 1017.4 0.0
30/04:00am 17.5 12.0 5.8 46 5.9 NW 24 28 13 15 1018.5 1017.2 0.0
30/03:30am 17.4 11.9 6.0 47 5.8 NW 24 28 13 15 1018.5 1017.2 0.0
30/03:00am 18.1 12.6 5.7 44 6.3 NNW 24 28 13 15 1018.5 1017.2 0.0
30/02:30am 17.5 12.4 6.1 47 5.8 NW 22 26 12 14 1018.9 1017.5 0.0
30/02:00am 18.0 12.9 5.9 45 6.1 NW 22 24 12 13 1019.0 1017.6 0.0
30/01:30am 18.3 13.2 6.2 45 6.2 NW 22 28 12 15 1019.1 1017.7 0.0
30/01:00am 17.6 12.5 6.2 47 5.8 NW 22 24 12 13 1019.4 1018.1 0.0
30/12:30am 17.8 12.4 6.3 47 5.9 NW 24 24 13 13 1019.6 1018.3 0.0
30/12:00am 17.9 12.4 6.1 46 6.0 NW 24 26 13 14 1019.8 1018.5 0.0
 
Date/Time
EST
Temp
°C
App
Temp
°C
Dew
Point
Rel
Hum
%
Delta-T
°C
Wind Press
QNH
hPa
Press
MSL
hPa
Rain
since 9 am
mm
Dir
 
Spd
km/h
Gust
km/h
Spd
kts
Gust
kts
29/11:30pm 18.8 14.2 6.3 44 6.4 NW 20 24 11 13 1019.9 1018.6 0.0
29/11:00pm 18.5 14.0 6.0 44 6.4 NW 19 20 10 11 1020.3 1018.9 0.0
29/10:30pm 19.1 15.3 5.9 42 6.8 NW 15 19 8 10 1020.4 1019.0 0.0
29/10:00pm 19.2 15.1 6.0 42 6.8 NW 17 20 9 11 1020.4 1019.0 0.0
29/09:30pm 19.0 14.4 5.8 42 6.7 NW 19 20 10 11 1020.4 1019.0 0.0
29/09:00pm 19.3 15.5 5.7 41 6.9 NW 15 20 8 11 1020.4 1019.0 0.0
29/08:30pm 19.2 16.1 5.6 41 6.9 NNW 11 13 6 7 1020.3 1018.9 0.0
29/08:00pm 19.9 16.8 5.5 39 7.3 N 11 15 6 8 1020.3 1018.9 0.0
29/07:30pm 20.4 16.6 5.6 38 7.6 N 15 24 8 13 1019.8 1018.5 0.0
29/07:00pm 19.9 16.5 5.9 40 7.2 NNW 13 17 7 9 1019.5 1018.2 0.0
29/06:30pm 20.4 16.9 5.6 38 7.6 N 13 17 7 9 1019.2 1017.8 0.0
29/06:00pm 21.0 17.1 5.4 36 8.0 NNW 15 17 8 9 1019.0 1017.6 0.0
29/05:30pm 21.8 17.6 5.7 35 8.4 NNW 17 22 9 12 1018.7 1017.3 0.0
29/05:00pm 22.3 17.7 5.7 34 8.6 NNW 19 26 10 14 1018.3 1017.0 0.0
29/04:30pm 22.5 18.0 5.9 34 8.7 NNW 19 28 10 15 1018.1 1016.8 0.0
29/04:00pm 22.5 17.8 5.9 34 8.7 NNW 20 28 11 15 1018.0 1016.7 0.0
29/03:30pm 21.8 16.9 5.3 34 8.5 N 20 30 11 16 1017.9 1016.5 0.0
29/03:00pm 22.7 18.4 6.9 36 8.4 NNW 19 30 10 16 1017.9 1016.5 0.0
29/02:30pm 22.3 16.3 5.3 33 8.8 NNW 26 39 14 21 1017.8 1016.4 0.0
29/02:00pm 22.5 16.3 6.3 35 8.5 NW 28 33 15 18 1018.2 1016.9 0.0
29/01:30pm 21.6 16.9 5.9 36 8.2 N 20 24 11 13 1018.9 1017.5 0.0
29/01:00pm 21.3 15.8 6.0 37 8.0 NNW 24 37 13 20 1019.0 1017.6 0.0
29/12:30pm 20.5 14.0 4.9 36 7.9 NNW 28 37 15 20 1019.3 1018.0 0.0
29/12:00pm 20.4 13.9 6.4 40 7.3 NNW 30 43 16 23 1019.3 1018.0 0.0
29/11:30am 20.5 14.4 6.8 41 7.2 NNW 28 37 15 20 1019.6 1018.3 0.0
29/11:00am 19.4 12.7 7.2 45 6.4 NNW 32 37 17 20 1019.9 1018.6 0.0
29/10:30am 18.3 10.8 6.5 46 6.1 NW 35 44 19 24 1019.9 1018.6 0.0
29/10:00am 18.1 11.1 6.9 48 5.8 NW 33 43 18 23 1020.2 1018.8 0.0
29/09:30am 18.1 11.3 6.9 48 5.8 NW 32 41 17 22 1020.3 1018.9 0.0
29/09:00am 17.5 8.9 6.7 49 5.6 NW 41 50 22 27 1019.7 1018.4 0.0
29/08:30am 17.0 9.9 6.5 50 5.4 NNW 33 39 18 21 1019.7 1018.4 0.0
29/08:00am 16.3 10.1 6.2 51 5.1 NNW 28 35 15 19 1020.0 1018.7 0.0
29/07:30am 15.6 10.1 6.1 53 4.8 NNW 24 28 13 15 1020.3 1018.9 0.0
29/07:00am 14.6 10.1 5.9 56 4.3 NW 19 24 10 13 1020.3 1018.9 0.0
29/06:30am 14.0 10.1 5.4 56 4.2 NW 15 20 8 11 1020.0 1018.7 0.0
29/06:00am 13.0 9.1 5.2 59 3.8 WNW 15 17 8 9 1019.9 1018.6 0.0
29/05:30am 12.2 7.9 5.1 62 3.4 NW 17 17 9 9 1019.7 1018.4 0.0
29/05:00am 11.8 6.9 5.0 63 3.2 NW 20 24 11 13 1019.1 1017.7 0.0
29/04:30am 13.1 7.8 5.0 58 3.9 NW 22 24 12 13 1018.9 1017.5 0.0
29/04:00am 13.4 8.1 5.1 57 4.0 NNW 22 28 12 15 1018.7 1017.3 0.0
29/03:30am 13.6 7.9 5.0 56 4.2 NW 24 30 13 16 1018.7 1017.3 0.0
29/03:00am 14.0 8.2 4.6 53 4.5 NNW 24 30 13 16 1018.5 1017.2 0.0
29/02:30am 13.5 8.0 4.1 53 4.5 NW 22 24 12 13 1019.2 1017.8 0.0
29/02:00am 13.8 7.9 4.1 52 4.6 NNW 24 28 13 15 1019.4 1018.1 0.0
29/01:30am 13.4 7.9 4.0 53 4.5 NW 22 24 12 13 1019.8 1018.5 0.0
29/01:00am 13.2 6.9 3.8 53 4.4 NW 26 30 14 16 1019.9 1018.6 0.0
29/12:30am 14.2 8.3 3.9 50 4.9 NW 24 28 13 15 1019.9 1018.6 0.0
29/12:00am 14.0 7.7 4.0 51 4.7 NW 26 30 14 16 1019.9 1018.6 0.0
 
Date/Time
EST
Temp
°C
App
Temp
°C
Dew
Point
Rel
Hum
%
Delta-T
°C
Wind Press
QNH
hPa
Press
MSL
hPa
Rain
since 9 am
mm
Dir
 
Spd
km/h
Gust
km/h
Spd
kts
Gust
kts
28/11:30pm 15.0 8.3 3.8 47 5.3 NW 28 32 15 17 1019.8 1018.5 0.0
28/11:00pm 14.4 8.5 3.8 49 5.0 NW 24 28 13 15 1020.0 1018.7 0.0
28/10:30pm 15.0 9.1 3.8 47 5.3 NW 24 26 13 14 1019.9 1018.6 0.0
28/10:00pm 14.6 8.8 4.3 50 4.9 NW 24 28 13 15 1019.7 1018.4 0.0
28/09:30pm 15.1 8.9 4.2 48 5.3 NNW 26 32 14 17 1019.4 1018.1 0.0
28/09:00pm 15.0 9.1 4.1 48 5.2 NNW 24 30 13 16 1019.6 1018.3 0.0
28/08:30pm 15.2 9.8 4.3 48 5.3 NNW 22 26 12 14 1019.8 1018.5 0.0
28/08:00pm 15.3 10.4 4.1 47 5.4 NNW 19 20 10 11 1019.8 1018.5 0.0
28/07:30pm 15.8 10.9 3.9 45 5.7 NW 19 20 10 11 1019.6 1018.3 0.0
28/07:00pm 16.0 11.3 3.4 43 6.0 NW 17 19 9 10 1019.6 1018.3 0.0
28/06:30pm 16.3 11.8 4.0 44 6.0 NW 17 20 9 11 1019.5 1018.2 0.0
28/06:00pm 16.9 12.0 4.3 43 6.1 NW 19 20 10 11 1019.6 1018.3 0.0
28/05:30pm 18.3 13.1 3.8 38 7.1 NW 20 26 11 14 1019.5 1018.2 0.0
28/05:00pm 19.0 12.8 2.4 33 7.9 NNW 24 32 13 17 1019.3 1018.0 0.0
28/04:30pm 19.0 12.7 1.5 31 8.2 NNW 24 32 13 17 1019.3 1018.0 0.0
28/04:00pm 19.4 14.0 2.3 32 8.2 NNW 20 32 11 17 1019.3 1018.0 0.0
28/03:30pm 19.3 13.3 3.1 34 7.9 NNW 24 35 13 19 1019.4 1018.1 0.0
28/03:00pm 19.3 13.9 4.3 37 7.4 N 22 32 12 17 1019.6 1018.3 0.0
28/02:30pm 19.1 14.3 4.5 38 7.3 NW 19 28 10 15 1020.0 1018.7 0.0
28/02:00pm 18.9 13.9 3.5 36 7.5 NW 19 24 10 13 1020.5 1019.2 0.0
28/01:30pm 18.6 13.5 4.0 38 7.2 NW 20 28 11 15 1020.8 1019.5 0.0
28/01:00pm 18.4 13.2 5.6 43 6.5 WNW 22 32 12 17 1021.2 1019.9 0.0
28/12:30pm 18.6 14.3 5.1 41 6.8 WNW 17 28 9 15 1021.5 1020.2 0.0
28/12:00pm 17.8 13.2 5.7 45 6.1 WNW 19 30 10 16 1022.0 1020.7 0.0
28/11:30am 17.8 13.3 7.0 49 5.6 NNW 20 28 11 15 1022.1 1020.8 0.0
28/11:00am 17.1 12.5 6.6 50 5.4 NW 20 24 11 13 1022.5 1021.2 0.0
28/10:30am 16.4 11.9 6.0 50 5.2 WNW 19 24 10 13 1022.7 1021.4 0.0
28/10:00am 16.4 12.4 6.5 52 5.0 NW 17 24 9 13 1023.1 1021.8 0.0
28/09:30am 16.4 14.3 6.5 52 5.0 NNW 7 15 4 8 1023.4 1022.1 0.0
28/09:00am 16.2 14.3 6.9 54 4.8 S 6 9 3 5 1023.5 1022.2 0.0
28/08:30am 14.6 11.9 5.4 54 4.5 E 9 11 5 6 1023.4 1022.1 0.0
28/08:00am 13.4 11.0 7.0 65 3.2 ESE 9 11 5 6 1023.3 1022.0 0.0

Other Formats:

Comma delimited format used in spreadsheet applications
http://www.bom.gov.au/fwo/IDN60801/IDN60801.95747.axf

JavaScript Object Notation format (JSON) in row-major order
http://www.bom.gov.au/fwo/IDN60801/IDN60801.95747.json